Sakishima No.116 — JH3376 — position and weather

sailwx.info

Track history (hours):
 
Tides and Currents Weather Stations Pressure Air Temp Water Temp Dewpoint Dewpoint Depression Visibility Wind Speed Wind Dir Waves Ship Positions

Sakishima No.116

Last reported at 2018-Jun-16 20:59 UTC. Time now 2018-Jun-24 01:43 UTC.
Position N 35°04' E 139°45'.

Length 82 m; draft 5 m.

Type: Cargo ship. MMSI: 431200133.

Date/timePositionNaut miles runAvg speedWind from/ knotsBaromVisibWave heightAir tempDewpointWater temp
2018-Jun-16 20:59N 35°04' E 139°45'612.6
2018-Jun-16 20:30N 35°10' E 139°46'611.9
2018-Jun-16 20:00N 35°16' E 139°46'611.4
2018-Jun-16 19:30N 35°20' E 139°41'0 0.8
2018-Jun-16 18:59N 35°20' E 139°40'0 0.0
2018-Jun-16 17:44N 35°20' E 139°40'0 0.0
2018-Jun-16 16:44N 35°20' E 139°40'0 0.0
2018-Jun-16 16:26N 35°20' E 139°40'0 0.0
2018-Jun-16 15:59N 35°20' E 139°40'0 0.1
2018-Jun-16 15:29N 35°20' E 139°40'0 0.0
2018-Jun-16 14:59N 35°20' E 139°40'0 0.0
2018-Jun-16 14:29N 35°20' E 139°40'0 0.0
2018-Jun-16 13:59N 35°20' E 139°40'0 0.0
2018-Jun-16 13:29N 35°20' E 139°40'0 0.0
2018-Jun-16 12:59N 35°20' E 139°40'0 0.0
2018-Jun-16 12:29N 35°20' E 139°40'0 0.0
2018-Jun-16 11:59N 35°20' E 139°40'0 0.0
2018-Jun-16 11:29N 35°20' E 139°40'0 0.0
2018-Jun-16 10:56N 35°20' E 139°40'0 0.1
2018-Jun-16 10:29N 35°20' E 139°40'0 0.0
2018-Jun-16 09:59N 35°20' E 139°40'0 0.0
2018-Jun-16 09:29N 35°20' E 139°40'0 0.0
2018-Jun-16 08:59N 35°20' E 139°40'0 0.3
2018-Jun-16 08:30N 35°20' E 139°40'5 9.7
2018-Jun-16 08:00N 35°22' E 139°46'4 3.6
2018-Jun-16 06:53N 35°22' E 139°51'0 0.0
2018-Jun-16 06:29N 35°22' E 139°51'0 0.0
2018-Jun-16 05:59N 35°22' E 139°51'0 0.0
2018-Jun-16 05:05N 35°22' E 139°51'0 0.0
2018-Jun-16 04:59N 35°22' E 139°51'0 0.0
2018-Jun-16 04:30N 35°22' E 139°51'1 2.0
2018-Jun-16 04:00N 35°23' E 139°50'2 0.5
2018-Jun-15 23:20N 35°22' E 139°53'0 0.7
2018-Jun-15 22:54N 35°22' E 139°53'410.1
2018-Jun-15 22:30N 35°22' E 139°48'4 8.5
2018-Jun-15 22:00N 35°19' E 139°44'5 9.8
2018-Jun-15 21:30N 35°15' E 139°47'510.4
2018-Jun-15 21:00N 35°10' E 139°47'  
Track history (hours):
 
Tides and Currents Weather Stations Pressure Air Temp Water Temp Dewpoint Dewpoint Depression Visibility Wind Speed Wind Dir Waves Ship Positions

Sakishima No.116

Last reported at 2018-Jun-16 20:59 UTC. Time now 2018-Jun-24 01:43 UTC.
Position N 35°04' E 139°45'.

Length 82 m; draft 5 m.

Type: Cargo ship. MMSI: 431200133.

Date/timePositionNaut miles runAvg speedWind from/ knotsBaromVisibWave heightAir tempDewpointWater temp
2018-Jun-16 20:59N 35°04' E 139°45'612.6
2018-Jun-16 20:30N 35°10' E 139°46'611.9
2018-Jun-16 20:00N 35°16' E 139°46'611.4
2018-Jun-16 19:30N 35°20' E 139°41'0 0.8
2018-Jun-16 18:59N 35°20' E 139°40'0 0.0
2018-Jun-16 17:44N 35°20' E 139°40'0 0.0
2018-Jun-16 16:44N 35°20' E 139°40'0 0.0
2018-Jun-16 16:26N 35°20' E 139°40'0 0.0
2018-Jun-16 15:59N 35°20' E 139°40'0 0.1
2018-Jun-16 15:29N 35°20' E 139°40'0 0.0
2018-Jun-16 14:59N 35°20' E 139°40'0 0.0
2018-Jun-16 14:29N 35°20' E 139°40'0 0.0
2018-Jun-16 13:59N 35°20' E 139°40'0 0.0
2018-Jun-16 13:29N 35°20' E 139°40'0 0.0
2018-Jun-16 12:59N 35°20' E 139°40'0 0.0
2018-Jun-16 12:29N 35°20' E 139°40'0 0.0
2018-Jun-16 11:59N 35°20' E 139°40'0 0.0
2018-Jun-16 11:29N 35°20' E 139°40'0 0.0
2018-Jun-16 10:56N 35°20' E 139°40'0 0.1
2018-Jun-16 10:29N 35°20' E 139°40'0 0.0
2018-Jun-16 09:59N 35°20' E 139°40'0 0.0
2018-Jun-16 09:29N 35°20' E 139°40'0 0.0
2018-Jun-16 08:59N 35°20' E 139°40'0 0.3
2018-Jun-16 08:30N 35°20' E 139°40'5 9.7
2018-Jun-16 08:00N 35°22' E 139°46'4 3.6
2018-Jun-16 06:53N 35°22' E 139°51'0 0.0
2018-Jun-16 06:29N 35°22' E 139°51'0 0.0
2018-Jun-16 05:59N 35°22' E 139°51'0 0.0
2018-Jun-16 05:05N 35°22' E 139°51'0 0.0
2018-Jun-16 04:59N 35°22' E 139°51'0 0.0
2018-Jun-16 04:30N 35°22' E 139°51'1 2.0
2018-Jun-16 04:00N 35°23' E 139°50'2 0.5
2018-Jun-15 23:20N 35°22' E 139°53'0 0.7
2018-Jun-15 22:54N 35°22' E 139°53'410.1
2018-Jun-15 22:30N 35°22' E 139°48'4 8.5
2018-Jun-15 22:00N 35°19' E 139°44'5 9.8
2018-Jun-15 21:30N 35°15' E 139°47'510.4
2018-Jun-15 21:00N 35°10' E 139°47'  

Dump ship's entire track history